Taylor County (AAS)

 

Airport Diagram
No Airport Diagram Available
Current Weather/Forecast (MVFR Conditions)
METAR KAAS 191535Z AUTO 19006KT 10SM OVC029 18/13 A3021 RMK AO1
TAF

Airport Information

All Charts
General
Chart Name View
TAKEOFF MINIMUMS
TAKEOFF MINIMUMS

Approaches
Chart Name Download
RNAV (GPS) RWY 05
RNAV (GPS) RWY 23
VOR/DME-A
RNAV (GPS) RWY 05
RNAV (GPS) RWY 23
VOR/DME-A


Airport Statistics
Departures Arrivals Local
All Collected Stats since June 2016: 4 5 0
2020 Stats: 2 3 0
October Stats: 0 0 0

Inbound Traffic (Arrivals) - 0

No inbound traffic.


Outbound Traffic (Departures) - 0

No outbound traffic.


Local Traffic (Pattern) - 0

No local traffic.